sensor_id;sensor_type;location;lat;lon;timestamp;pressure;altitude;pressure_sealevel;temperature;humidity
7990;BME280;4040;42.848;23.034;2023-02-20T00:00:57;95260.22;;;9.17;100.00
7990;BME280;4040;42.848;23.034;2023-02-20T00:06:46;95266.34;;;9.07;100.00
7990;BME280;4040;42.848;23.034;2023-02-20T00:12:35;95252.50;;;8.98;100.00
7990;BME280;4040;42.848;23.034;2023-02-20T00:18:25;95237.84;;;8.78;100.00
7990;BME280;4040;42.848;23.034;2023-02-20T00:24:14;95225.47;;;8.49;100.00
7990;BME280;4040;42.848;23.034;2023-02-20T00:30:04;95219.63;;;8.26;100.00
7990;BME280;4040;42.848;23.034;2023-02-20T00:35:55;95239.88;;;8.16;100.00
7990;BME280;4040;42.848;23.034;2023-02-20T00:41:44;95266.78;;;8.27;100.00
7990;BME280;4040;42.848;23.034;2023-02-20T00:47:33;95236.22;;;8.49;100.00
7990;BME280;4040;42.848;23.034;2023-02-20T00:53:23;95270.19;;;9.02;100.00
7990;BME280;4040;42.848;23.034;2023-02-20T00:59:12;95260.97;;;9.07;100.00
7990;BME280;4040;42.848;23.034;2023-02-20T01:08:45;95258.66;;;9.09;100.00
7990;BME280;4040;42.848;23.034;2023-02-20T01:14:34;95273.28;;;9.11;100.00
7990;BME280;4040;42.848;23.034;2023-02-20T01:20:23;95293.63;;;9.23;100.00
7990;BME280;4040;42.848;23.034;2023-02-20T01:26:14;95294.84;;;9.39;100.00
7990;BME280;4040;42.848;23.034;2023-02-20T01:32:03;95264.09;;;9.33;100.00
7990;BME280;4040;42.848;23.034;2023-02-20T01:37:52;95294.78;;;9.15;100.00
7990;BME280;4040;42.848;23.034;2023-02-20T01:43:42;95288.53;;;8.90;100.00
7990;BME280;4040;42.848;23.034;2023-02-20T01:49:34;95267.69;;;8.52;100.00
7990;BME280;4040;42.848;23.034;2023-02-20T01:55:26;95280.47;;;8.15;100.00
7990;BME280;4040;42.848;23.034;2023-02-20T02:01:38;95276.09;;;7.89;100.00
7990;BME280;4040;42.848;23.034;2023-02-20T02:11:30;95287.03;;;7.27;100.00
7990;BME280;4040;42.848;23.034;2023-02-20T02:17:40;95285.03;;;7.17;100.00
7990;BME280;4040;42.848;23.034;2023-02-20T02:27:01;95294.13;;;7.09;100.00
7990;BME280;4040;42.848;23.034;2023-02-20T02:33:17;95290.06;;;6.89;100.00
7990;BME280;4040;42.848;23.034;2023-02-20T02:39:16;95273.69;;;6.94;100.00
7990;BME280;4040;42.848;23.034;2023-02-20T02:45:15;95284.38;;;7.27;100.00
7990;BME280;4040;42.848;23.034;2023-02-20T02:51:08;95272.03;;;7.19;100.00
7990;BME280;4040;42.848;23.034;2023-02-20T02:57:20;95315.84;;;7.37;100.00
7990;BME280;4040;42.848;23.034;2023-02-20T03:03:14;95323.44;;;7.32;100.00
7990;BME280;4040;42.848;23.034;2023-02-20T03:12:49;95340.84;;;7.48;100.00
7990;BME280;4040;42.848;23.034;2023-02-20T03:18:40;95336.41;;;7.66;100.00
7990;BME280;4040;42.848;23.034;2023-02-20T03:24:32;95341.84;;;7.73;100.00
7990;BME280;4040;42.848;23.034;2023-02-20T03:30:45;95340.09;;;7.51;100.00
7990;BME280;4040;42.848;23.034;2023-02-20T03:36:38;95270.19;;;6.90;100.00
7990;BME280;4040;42.848;23.034;2023-02-20T03:42:48;95354.50;;;7.36;100.00
7990;BME280;4040;42.848;23.034;2023-02-20T03:49:01;95347.78;;;7.16;100.00
7990;BME280;4040;42.848;23.034;2023-02-20T03:54:51;95382.41;;;7.32;100.00
7990;BME280;4040;42.848;23.034;2023-02-20T04:00:43;95382.91;;;7.11;100.00
7990;BME280;4040;42.848;23.034;2023-02-20T04:06:36;95368.75;;;6.81;100.00
7990;BME280;4040;42.848;23.034;2023-02-20T04:16:27;95390.56;;;6.54;100.00
7990;BME280;4040;42.848;23.034;2023-02-20T04:22:20;95361.69;;;6.37;100.00
7990;BME280;4040;42.848;23.034;2023-02-20T04:28:12;95384.75;;;6.74;100.00
7990;BME280;4040;42.848;23.034;2023-02-20T04:34:01;95381.75;;;6.79;100.00
7990;BME280;4040;42.848;23.034;2023-02-20T04:39:52;95398.22;;;6.81;100.00
7990;BME280;4040;42.848;23.034;2023-02-20T04:45:40;95400.88;;;6.81;100.00
7990;BME280;4040;42.848;23.034;2023-02-20T04:51:29;95428.25;;;6.68;100.00
7990;BME280;4040;42.848;23.034;2023-02-20T04:57:20;95411.91;;;6.50;100.00
7990;BME280;4040;42.848;23.034;2023-02-20T05:03:09;95431.38;;;6.47;100.00
7990;BME280;4040;42.848;23.034;2023-02-20T05:08:58;95418.34;;;6.20;100.00
7990;BME280;4040;42.848;23.034;2023-02-20T05:19:11;95440.25;;;6.29;100.00
7990;BME280;4040;42.848;23.034;2023-02-20T05:25:01;95447.28;;;6.37;100.00
7990;BME280;4040;42.848;23.034;2023-02-20T05:30:49;95457.84;;;6.52;100.00
7990;BME280;4040;42.848;23.034;2023-02-20T05:36:40;95446.50;;;6.62;100.00
7990;BME280;4040;42.848;23.034;2023-02-20T05:42:29;95473.22;;;6.85;100.00
7990;BME280;4040;42.848;23.034;2023-02-20T05:48:18;95475.44;;;7.05;100.00
7990;BME280;4040;42.848;23.034;2023-02-20T05:54:08;95497.16;;;7.26;100.00
7990;BME280;4040;42.848;23.034;2023-02-20T05:59:57;95506.06;;;7.66;100.00
7990;BME280;4040;42.848;23.034;2023-02-20T06:05:46;95517.31;;;8.12;100.00
7990;BME280;4040;42.848;23.034;2023-02-20T06:11:37;95523.66;;;9.31;100.00
7990;BME280;4040;42.848;23.034;2023-02-20T06:21:49;95526.13;;;9.64;100.00
7990;BME280;4040;42.848;23.034;2023-02-20T06:27:41;95525.06;;;9.11;100.00
7990;BME280;4040;42.848;23.034;2023-02-20T06:33:30;95530.81;;;8.55;100.00
7990;BME280;4040;42.848;23.034;2023-02-20T06:39:19;95537.06;;;8.30;100.00
7990;BME280;4040;42.848;23.034;2023-02-20T06:45:09;95504.44;;;8.28;100.00
7990;BME280;4040;42.848;23.034;2023-02-20T06:50:58;95537.25;;;8.94;100.00
7990;BME280;4040;42.848;23.034;2023-02-20T06:56:47;95536.25;;;9.94;94.45
7990;BME280;4040;42.848;23.034;2023-02-20T07:02:38;95540.72;;;11.21;74.26
7990;BME280;4040;42.848;23.034;2023-02-20T07:08:27;95544.94;;;10.59;75.10
7990;BME280;4040;42.848;23.034;2023-02-20T07:14:16;95552.56;;;10.36;72.56
7990;BME280;4040;42.848;23.034;2023-02-20T07:24:28;95574.63;;;9.78;72.08
7990;BME280;4040;42.848;23.034;2023-02-20T07:30:17;95581.75;;;10.20;67.48
7990;BME280;4040;42.848;23.034;2023-02-20T07:36:07;95589.94;;;10.62;64.90
7990;BME280;4040;42.848;23.034;2023-02-20T07:41:58;95577.41;;;13.45;54.50
7990;BME280;4040;42.848;23.034;2023-02-20T07:47:47;95581.81;;;14.06;49.88
7990;BME280;4040;42.848;23.034;2023-02-20T07:53:36;95586.75;;;14.78;47.33
7990;BME280;4040;42.848;23.034;2023-02-20T07:59:26;95578.09;;;13.93;48.72
7990;BME280;4040;42.848;23.034;2023-02-20T08:05:15;95593.91;;;14.35;47.97
7990;BME280;4040;42.848;23.034;2023-02-20T08:11:05;95590.25;;;14.75;45.76
7990;BME280;4040;42.848;23.034;2023-02-20T08:16:55;95586.63;;;16.22;43.50
7990;BME280;4040;42.848;23.034;2023-02-20T08:27:06;95608.66;;;17.98;39.68
7990;BME280;4040;42.848;23.034;2023-02-20T08:32:57;95619.13;;;17.04;39.66
7990;BME280;4040;42.848;23.034;2023-02-20T08:38:48;95620.53;;;16.37;40.57
7990;BME280;4040;42.848;23.034;2023-02-20T08:44:39;95619.25;;;17.16;39.85
7990;BME280;4040;42.848;23.034;2023-02-20T08:50:30;95620.31;;;17.70;38.88
7990;BME280;4040;42.848;23.034;2023-02-20T08:56:20;95578.84;;;17.47;38.62
7990;BME280;4040;42.848;23.034;2023-02-20T09:02:15;95615.91;;;16.34;39.48
7990;BME280;4040;42.848;23.034;2023-02-20T09:08:06;95614.88;;;17.38;39.11
7990;BME280;4040;42.848;23.034;2023-02-20T09:13:55;95613.16;;;17.09;38.66
7990;BME280;4040;42.848;23.034;2023-02-20T09:19:44;95609.78;;;17.21;39.05
7990;BME280;4040;42.848;23.034;2023-02-20T09:29:56;95610.50;;;16.89;39.59
7990;BME280;4040;42.848;23.034;2023-02-20T09:35:45;95584.91;;;18.27;37.97
7990;BME280;4040;42.848;23.034;2023-02-20T09:41:44;95605.91;;;17.22;39.26
7990;BME280;4040;42.848;23.034;2023-02-20T09:47:49;95593.00;;;16.90;38.95
7990;BME280;4040;42.848;23.034;2023-02-20T09:53:49;95592.19;;;17.73;38.36
7990;BME280;4040;42.848;23.034;2023-02-20T09:59:40;95602.75;;;17.55;38.24
7990;BME280;4040;42.848;23.034;2023-02-20T10:05:33;95605.44;;;17.07;39.00
7990;BME280;4040;42.848;23.034;2023-02-20T10:11:34;95532.28;;;16.22;39.24
7990;BME280;4040;42.848;23.034;2023-02-20T10:17:35;95589.94;;;18.00;36.31
7990;BME280;4040;42.848;23.034;2023-02-20T10:23:34;95575.53;;;17.99;36.87
7990;BME280;4040;42.848;23.034;2023-02-20T10:29:28;95562.56;;;17.75;37.79
7990;BME280;4040;42.848;23.034;2023-02-20T10:35:23;95558.59;;;17.64;37.84
7990;BME280;4040;42.848;23.034;2023-02-20T10:41:18;95551.34;;;17.25;37.71
7990;BME280;4040;42.848;23.034;2023-02-20T10:47:13;95542.25;;;17.92;35.76
7990;BME280;4040;42.848;23.034;2023-02-20T10:53:12;95483.94;;;17.61;37.08
7990;BME280;4040;42.848;23.034;2023-02-20T10:59:08;95539.88;;;17.34;37.14
7990;BME280;4040;42.848;23.034;2023-02-20T11:05:01;95511.41;;;17.95;36.21
7990;BME280;4040;42.848;23.034;2023-02-20T11:10:55;95513.91;;;17.45;35.94
7990;BME280;4040;42.848;23.034;2023-02-20T11:16:53;95523.38;;;17.85;36.76
7990;BME280;4040;42.848;23.034;2023-02-20T11:22:46;95517.31;;;17.49;36.07
7990;BME280;4040;42.848;23.034;2023-02-20T11:33:04;95504.97;;;18.30;35.27
7990;BME280;4040;42.848;23.034;2023-02-20T11:38:58;95507.63;;;18.46;34.02
7990;BME280;4040;42.848;23.034;2023-02-20T11:45:10;95516.88;;;19.61;33.05
7990;BME280;4040;42.848;23.034;2023-02-20T11:51:00;95502.03;;;17.96;34.71
7990;BME280;4040;42.848;23.034;2023-02-20T11:56:56;95494.88;;;18.02;34.35
7990;BME280;4040;42.848;23.034;2023-02-20T12:02:51;95511.59;;;17.60;35.45
7990;BME280;4040;42.848;23.034;2023-02-20T12:08:49;95503.34;;;18.32;34.83
7990;BME280;4040;42.848;23.034;2023-02-20T12:14:41;95497.28;;;18.12;34.60
7990;BME280;4040;42.848;23.034;2023-02-20T12:20:30;95512.06;;;15.84;38.13
7990;BME280;4040;42.848;23.034;2023-02-20T12:26:33;95502.41;;;13.82;41.68
7990;BME280;4040;42.848;23.034;2023-02-20T12:32:37;95501.06;;;13.64;42.85
7990;BME280;4040;42.848;23.034;2023-02-20T12:38:38;95503.44;;;13.18;44.04
7990;BME280;4040;42.848;23.034;2023-02-20T12:44:53;95493.88;;;13.10;44.82
7990;BME280;4040;42.848;23.034;2023-02-20T12:50:56;95488.59;;;13.36;43.64
7990;BME280;4040;42.848;23.034;2023-02-20T12:56:59;95482.53;;;13.59;44.18
7990;BME280;4040;42.848;23.034;2023-02-20T13:02:54;95499.63;;;13.52;43.79
7990;BME280;4040;42.848;23.034;2023-02-20T13:08:59;95494.63;;;13.14;45.79
7990;BME280;4040;42.848;23.034;2023-02-20T13:14:58;95465.00;;;13.00;46.36
7990;BME280;4040;42.848;23.034;2023-02-20T13:20:53;95474.81;;;12.80;46.33
7990;BME280;4040;42.848;23.034;2023-02-20T13:26:47;95477.78;;;12.96;46.83
7990;BME280;4040;42.848;23.034;2023-02-20T13:32:38;95504.94;;;12.78;46.34
7990;BME280;4040;42.848;23.034;2023-02-20T13:38:29;95516.44;;;12.86;46.89
7990;BME280;4040;42.848;23.034;2023-02-20T13:44:41;95525.56;;;12.55;47.21
7990;BME280;4040;42.848;23.034;2023-02-20T13:50:31;95516.22;;;12.05;48.36
7990;BME280;4040;42.848;23.034;2023-02-20T13:56:24;95530.59;;;11.71;49.17
7990;BME280;4040;42.848;23.034;2023-02-20T14:02:16;95539.09;;;11.52;50.28
7990;BME280;4040;42.848;23.034;2023-02-20T14:08:15;95546.44;;;11.65;50.60
7990;BME280;4040;42.848;23.034;2023-02-20T14:14:09;95536.75;;;11.71;50.68
7990;BME280;4040;42.848;23.034;2023-02-20T14:20:00;95509.81;;;11.50;51.03
7990;BME280;4040;42.848;23.034;2023-02-20T14:25:56;95515.59;;;11.59;51.21
7990;BME280;4040;42.848;23.034;2023-02-20T14:36:07;95500.22;;;11.25;52.47
7990;BME280;4040;42.848;23.034;2023-02-20T14:41:59;95536.78;;;11.50;51.94
7990;BME280;4040;42.848;23.034;2023-02-20T14:57:33;95568.78;;;11.41;53.18
7990;BME280;4040;42.848;23.034;2023-02-20T15:03:24;95564.97;;;11.14;53.12
7990;BME280;4040;42.848;23.034;2023-02-20T15:09:13;95570.34;;;10.93;53.50
7990;BME280;4040;42.848;23.034;2023-02-20T15:15:07;95567.25;;;10.60;54.31
7990;BME280;4040;42.848;23.034;2023-02-20T15:20:56;95579.50;;;10.43;55.80
7990;BME280;4040;42.848;23.034;2023-02-20T15:26:45;95574.06;;;10.19;57.29
7990;BME280;4040;42.848;23.034;2023-02-20T15:32:37;95588.56;;;10.00;58.68
7990;BME280;4040;42.848;23.034;2023-02-20T15:38:29;95583.19;;;10.00;59.02
7990;BME280;4040;42.848;23.034;2023-02-20T15:44:19;95580.78;;;9.78;61.87
7990;BME280;4040;42.848;23.034;2023-02-20T15:50:10;95568.44;;;9.67;62.40
7990;BME280;4040;42.848;23.034;2023-02-20T15:55:59;95571.03;;;9.49;64.02
7990;BME280;4040;42.848;23.034;2023-02-20T16:01:47;95576.97;;;9.22;66.41
7990;BME280;4040;42.848;23.034;2023-02-20T16:07:38;95580.81;;;9.21;66.64
7990;BME280;4040;42.848;23.034;2023-02-20T16:13:28;95575.72;;;9.09;67.89
7990;BME280;4040;42.848;23.034;2023-02-20T16:19:20;95564.00;;;8.80;70.52
7990;BME280;4040;42.848;23.034;2023-02-20T16:25:13;95553.50;;;8.65;73.26
7990;BME280;4040;42.848;23.034;2023-02-20T16:31:02;95567.41;;;8.34;77.19
7990;BME280;4040;42.848;23.034;2023-02-20T16:36:52;95572.56;;;8.16;80.74
7990;BME280;4040;42.848;23.034;2023-02-20T16:42:42;95575.59;;;8.15;82.25
7990;BME280;4040;42.848;23.034;2023-02-20T16:48:33;95569.41;;;8.11;82.59
7990;BME280;4040;42.848;23.034;2023-02-20T16:58:05;95597.16;;;7.63;89.39
7990;BME280;4040;42.848;23.034;2023-02-20T17:03:54;95608.13;;;7.25;96.11
7990;BME280;4040;42.848;23.034;2023-02-20T17:09:43;95600.84;;;7.00;100.00
7990;BME280;4040;42.848;23.034;2023-02-20T17:15:33;95601.00;;;7.10;100.00
7990;BME280;4040;42.848;23.034;2023-02-20T17:21:22;95602.13;;;7.35;97.98
7990;BME280;4040;42.848;23.034;2023-02-20T17:27:12;95591.06;;;7.62;92.51
7990;BME280;4040;42.848;23.034;2023-02-20T17:33:02;95598.13;;;7.77;90.62
7990;BME280;4040;42.848;23.034;2023-02-20T17:38:51;95591.75;;;7.04;97.94
7990;BME280;4040;42.848;23.034;2023-02-20T17:44:40;95585.66;;;6.62;100.00
7990;BME280;4040;42.848;23.034;2023-02-20T17:50:30;95590.94;;;6.36;100.00
7990;BME280;4040;42.848;23.034;2023-02-20T18:00:21;95573.97;;;6.06;100.00
7990;BME280;4040;42.848;23.034;2023-02-20T18:06:11;95582.97;;;6.17;100.00
7990;BME280;4040;42.848;23.034;2023-02-20T18:12:01;95582.03;;;5.53;100.00
7990;BME280;4040;42.848;23.034;2023-02-20T18:17:49;95582.66;;;5.12;100.00
7990;BME280;4040;42.848;23.034;2023-02-20T18:23:40;95584.13;;;5.09;100.00
7990;BME280;4040;42.848;23.034;2023-02-20T18:29:28;95548.78;;;4.82;100.00
7990;BME280;4040;42.848;23.034;2023-02-20T18:35:18;95576.41;;;4.74;100.00
7990;BME280;4040;42.848;23.034;2023-02-20T18:41:10;95582.75;;;4.54;100.00
7990;BME280;4040;42.848;23.034;2023-02-20T18:46:59;95562.69;;;4.13;100.00
7990;BME280;4040;42.848;23.034;2023-02-20T18:52:48;95549.44;;;4.01;100.00
7990;BME280;4040;42.848;23.034;2023-02-20T19:02:52;95558.81;;;4.11;100.00
7990;BME280;4040;42.848;23.034;2023-02-20T19:08:40;95560.00;;;3.98;100.00
7990;BME280;4040;42.848;23.034;2023-02-20T19:14:29;95556.66;;;4.01;100.00
7990;BME280;4040;42.848;23.034;2023-02-20T19:20:21;95553.97;;;4.01;100.00
7990;BME280;4040;42.848;23.034;2023-02-20T19:26:11;95551.31;;;4.01;100.00
7990;BME280;4040;42.848;23.034;2023-02-20T19:31:59;95552.06;;;3.86;100.00
7990;BME280;4040;42.848;23.034;2023-02-20T19:37:50;95533.00;;;3.84;100.00
7990;BME280;4040;42.848;23.034;2023-02-20T19:43:38;95535.22;;;3.82;100.00
7990;BME280;4040;42.848;23.034;2023-02-20T19:49:27;95529.22;;;3.85;100.00
7990;BME280;4040;42.848;23.034;2023-02-20T19:55:19;95530.53;;;4.06;100.00
7990;BME280;4040;42.848;23.034;2023-02-20T20:05:30;95528.47;;;4.15;100.00
7990;BME280;4040;42.848;23.034;2023-02-20T20:11:20;95530.47;;;4.03;100.00
7990;BME280;4040;42.848;23.034;2023-02-20T20:17:09;95519.34;;;4.16;100.00
7990;BME280;4040;42.848;23.034;2023-02-20T20:23:00;95516.59;;;3.97;100.00
7990;BME280;4040;42.848;23.034;2023-02-20T20:28:50;95521.28;;;3.73;100.00
7990;BME280;4040;42.848;23.034;2023-02-20T20:34:39;95536.47;;;3.45;100.00
7990;BME280;4040;42.848;23.034;2023-02-20T20:40:32;95531.41;;;3.40;100.00
7990;BME280;4040;42.848;23.034;2023-02-20T20:46:23;95522.06;;;3.46;100.00
7990;BME280;4040;42.848;23.034;2023-02-20T20:52:12;95514.06;;;3.46;100.00
7990;BME280;4040;42.848;23.034;2023-02-20T20:58:01;95506.59;;;3.24;100.00
7990;BME280;4040;42.848;23.034;2023-02-20T21:08:13;95480.50;;;3.02;100.00
7990;BME280;4040;42.848;23.034;2023-02-20T21:14:01;95477.88;;;2.90;100.00
7990;BME280;4040;42.848;23.034;2023-02-20T21:19:50;95479.31;;;2.87;100.00
7990;BME280;4040;42.848;23.034;2023-02-20T21:25:41;95482.56;;;2.45;100.00
7990;BME280;4040;42.848;23.034;2023-02-20T21:31:30;95483.47;;;2.37;100.00
7990;BME280;4040;42.848;23.034;2023-02-20T21:37:19;95475.59;;;2.17;100.00
7990;BME280;4040;42.848;23.034;2023-02-20T21:43:10;95467.97;;;2.15;100.00
7990;BME280;4040;42.848;23.034;2023-02-20T21:49:27;95467.72;;;1.84;100.00
7990;BME280;4040;42.848;23.034;2023-02-20T21:55:18;95455.88;;;1.82;100.00
7990;BME280;4040;42.848;23.034;2023-02-20T22:01:08;95455.75;;;1.78;100.00
7990;BME280;4040;42.848;23.034;2023-02-20T22:11:17;95428.75;;;1.64;100.00
7990;BME280;4040;42.848;23.034;2023-02-20T22:17:25;95407.84;;;1.63;100.00
7990;BME280;4040;42.848;23.034;2023-02-20T22:23:31;95417.03;;;1.65;100.00
7990;BME280;4040;42.848;23.034;2023-02-20T22:29:37;95420.97;;;1.59;100.00
7990;BME280;4040;42.848;23.034;2023-02-20T22:35:45;95420.78;;;1.64;100.00
7990;BME280;4040;42.848;23.034;2023-02-20T22:41:53;95423.69;;;1.83;100.00
7990;BME280;4040;42.848;23.034;2023-02-20T22:47:59;95417.72;;;1.86;100.00
7990;BME280;4040;42.848;23.034;2023-02-20T22:54:07;95413.72;;;1.80;100.00
7990;BME280;4040;42.848;23.034;2023-02-20T23:08:27;95404.84;;;1.64;100.00
7990;BME280;4040;42.848;23.034;2023-02-20T23:14:33;95402.31;;;1.80;100.00
7990;BME280;4040;42.848;23.034;2023-02-20T23:20:40;95406.53;;;1.93;100.00
7990;BME280;4040;42.848;23.034;2023-02-20T23:26:50;95398.88;;;1.91;100.00
7990;BME280;4040;42.848;23.034;2023-02-20T23:32:57;95378.19;;;1.73;100.00
7990;BME280;4040;42.848;23.034;2023-02-20T23:39:03;95363.47;;;1.99;100.00
7990;BME280;4040;42.848;23.034;2023-02-20T23:45:10;95364.34;;;2.27;100.00
7990;BME280;4040;42.848;23.034;2023-02-20T23:51:16;95350.03;;;2.32;100.00
7990;BME280;4040;42.848;23.034;2023-02-20T23:57:22;95361.66;;;2.39;100.00
